createdAt,value
2018-12-02T00:02:19.931Z,-1.30
2018-12-02T00:04:51.576Z,-1.20
2018-12-02T00:07:23.223Z,-1.30
2018-12-02T00:09:54.708Z,-1.30
2018-12-02T00:12:26.175Z,-1.30
2018-12-02T00:14:57.526Z,-1.30
2018-12-02T00:17:28.869Z,-1.30
2018-12-02T00:20:00.490Z,-1.30
2018-12-02T00:22:31.907Z,-1.30
2018-12-02T00:25:03.072Z,-1.30
2018-12-02T00:27:34.494Z,-1.20
2018-12-02T00:30:10.867Z,-1.20
2018-12-02T00:32:41.899Z,-1.20
2018-12-02T00:35:14.810Z,-1.20
2018-12-02T00:37:50.338Z,-1.30
2018-12-02T00:40:22.780Z,-1.20
2018-12-02T00:42:56.187Z,-1.20
2018-12-02T00:45:32.591Z,-1.30
2018-12-02T00:48:06.417Z,-1.30
2018-12-02T00:50:37.714Z,-1.30
2018-12-02T00:53:10.575Z,-1.20
2018-12-02T00:55:43.567Z,-1.20
2018-12-02T00:58:15.077Z,-1.30
2018-12-02T01:00:46.487Z,-1.40
2018-12-02T01:03:18.127Z,-1.40
2018-12-02T01:05:49.884Z,-1.40
2018-12-02T01:08:21.412Z,-1.40
2018-12-02T01:10:53.049Z,-1.40
2018-12-02T01:13:24.345Z,-1.30
2018-12-02T01:15:55.850Z,-1.40
2018-12-02T01:18:27.232Z,-1.40
2018-12-02T01:20:58.717Z,-1.30
2018-12-02T01:23:30.270Z,-1.30
2018-12-02T01:26:01.587Z,-1.40
2018-12-02T01:28:33.016Z,-1.30
2018-12-02T01:31:04.306Z,-1.30
2018-12-02T01:33:35.700Z,-1.30
2018-12-02T01:36:07.369Z,-1.20
2018-12-02T01:38:38.714Z,-1.30
2018-12-02T01:41:10.262Z,-1.30
2018-12-02T01:43:41.594Z,-1.30
2018-12-02T01:46:13.277Z,-1.30
2018-12-02T01:48:44.821Z,-1.30
2018-12-02T01:51:16.320Z,-1.20
2018-12-02T01:53:47.807Z,-1.20
2018-12-02T01:56:19.107Z,-1.20
2018-12-02T01:58:50.535Z,-1.20
2018-12-02T02:01:21.946Z,-1.20
2018-12-02T02:03:53.213Z,-1.00
2018-12-02T02:06:24.694Z,-1.00
2018-12-02T02:08:56.354Z,-1.10
2018-12-02T02:11:27.911Z,-1.10
2018-12-02T02:13:59.145Z,-1.20
2018-12-02T02:16:30.355Z,-1.20
2018-12-02T02:19:01.982Z,-1.20
2018-12-02T02:21:33.610Z,-1.10
2018-12-02T02:24:04.950Z,-1.20
2018-12-02T02:26:36.470Z,-1.20
2018-12-02T02:29:07.914Z,-1.20
2018-12-02T02:31:39.373Z,-1.20
2018-12-02T02:34:10.869Z,-1.10
2018-12-02T02:36:42.279Z,-1.10
2018-12-02T02:39:13.525Z,-1.10
2018-12-02T02:41:44.887Z,-1.10
2018-12-02T02:44:16.348Z,-1.20
2018-12-02T02:46:47.579Z,-1.10
2018-12-02T02:49:18.906Z,-1.10
2018-12-02T02:51:50.381Z,-1.20
2018-12-02T02:54:21.915Z,-1.20
2018-12-02T02:56:53.679Z,-1.20
2018-12-02T02:59:24.786Z,-1.10
2018-12-02T03:01:56.360Z,-1.10
2018-12-02T03:04:28.746Z,-1.10
2018-12-02T03:07:00.126Z,-1.10
2018-12-02T03:09:31.301Z,-1.10
2018-12-02T03:12:02.785Z,-1.00
2018-12-02T03:14:34.418Z,-1.10
2018-12-02T03:17:05.959Z,-1.10
2018-12-02T03:19:37.378Z,-1.10
2018-12-02T03:22:08.918Z,-1.10
2018-12-02T03:24:40.132Z,-1.10
2018-12-02T03:27:12.367Z,-1.10
2018-12-02T03:29:43.696Z,-1.00
2018-12-02T03:32:15.003Z,-1.00
2018-12-02T03:34:46.452Z,-1.10
2018-12-02T03:37:17.765Z,-1.10
2018-12-02T03:39:49.352Z,-1.10
2018-12-02T03:42:20.927Z,-1.10
2018-12-02T03:44:52.276Z,-1.10
2018-12-02T03:47:23.614Z,-1.10
2018-12-02T03:49:54.768Z,-1.10
2018-12-02T03:52:26.107Z,-1.00
2018-12-02T03:54:57.461Z,-1.00
2018-12-02T03:57:29.031Z,-1.00
2018-12-02T04:00:00.468Z,-1.00
2018-12-02T04:02:31.933Z,-1.00
2018-12-02T04:05:03.298Z,-1.00
2018-12-02T04:07:34.734Z,-1.00
2018-12-02T04:10:10.571Z,-1.00
2018-12-02T04:12:42.135Z,-1.00
2018-12-02T04:15:18.085Z,-1.00
2018-12-02T04:17:49.421Z,-1.00
2018-12-02T04:20:21.452Z,-1.00
2018-12-02T04:22:53.334Z,-1.00
2018-12-02T04:25:26.579Z,-1.00
2018-12-02T04:27:58.107Z,-1.00
2018-12-02T04:30:29.274Z,-0.90
2018-12-02T04:33:00.790Z,-0.90
2018-12-02T04:35:32.358Z,-1.00
2018-12-02T04:38:03.590Z,-1.00
2018-12-02T04:40:35.931Z,-1.00
2018-12-02T04:43:07.538Z,-0.90
2018-12-02T04:45:38.846Z,-0.90
2018-12-02T04:48:10.411Z,-0.90
2018-12-02T04:50:41.779Z,-0.90
2018-12-02T04:53:13.015Z,-0.90
2018-12-02T04:55:44.485Z,-0.90
2018-12-02T04:58:15.955Z,-0.90
2018-12-02T05:00:47.263Z,-0.90
2018-12-02T05:03:18.259Z,-0.90
2018-12-02T05:05:49.631Z,-0.90
2018-12-02T05:08:21.078Z,-0.90
2018-12-02T05:10:52.539Z,-0.90
2018-12-02T05:13:23.904Z,-0.90
2018-12-02T05:15:55.280Z,-0.90
2018-12-02T05:18:26.958Z,-0.90
2018-12-02T05:20:58.880Z,-0.80
2018-12-02T05:23:30.236Z,-0.80
2018-12-02T05:26:01.461Z,-0.80
2018-12-02T05:28:33.136Z,-0.80
2018-12-02T05:31:04.637Z,-0.80
2018-12-02T05:33:36.007Z,-0.80
2018-12-02T05:36:07.346Z,-0.80
2018-12-02T05:38:38.527Z,-0.80
2018-12-02T05:41:09.770Z,-0.80
2018-12-02T05:43:41.233Z,-0.80
2018-12-02T05:46:12.574Z,-0.80
2018-12-02T05:48:43.925Z,-0.80
2018-12-02T05:51:15.341Z,-0.80
2018-12-02T05:53:47.000Z,-0.80
2018-12-02T05:56:18.173Z,-0.80
2018-12-02T05:58:49.426Z,-0.80
2018-12-02T06:01:20.851Z,-0.80
2018-12-02T06:03:52.704Z,-0.70
2018-12-02T06:06:23.851Z,-0.70
2018-12-02T06:08:55.394Z,-0.70
2018-12-02T06:11:26.766Z,-0.70
2018-12-02T06:13:58.147Z,-0.70
2018-12-02T06:16:29.385Z,-0.70
2018-12-02T06:19:00.556Z,-0.70
2018-12-02T06:21:31.726Z,-0.70
2018-12-02T06:24:03.353Z,-0.70
2018-12-02T06:26:35.134Z,-0.70
2018-12-02T06:29:06.405Z,-0.70
2018-12-02T06:31:37.517Z,-0.70
2018-12-02T06:34:09.191Z,-0.60
2018-12-02T06:36:41.091Z,-0.60
2018-12-02T06:39:12.733Z,-0.60
2018-12-02T06:41:43.865Z,-0.60
2018-12-02T06:44:15.392Z,-0.60
2018-12-02T06:46:46.979Z,-0.60
2018-12-02T06:49:18.311Z,-0.60
2018-12-02T06:51:49.737Z,-0.70
2018-12-02T06:54:24.469Z,-0.70
2018-12-02T06:56:59.918Z,-0.70
2018-12-02T06:59:49.803Z,-0.70
2018-12-02T07:02:41.048Z,-0.70
2018-12-02T07:05:17.626Z,-0.70
2018-12-02T07:07:49.079Z,-0.70
2018-12-02T07:10:20.355Z,-0.70
2018-12-02T07:12:52.110Z,-0.70
2018-12-02T07:15:23.629Z,-0.70
2018-12-02T07:17:56.471Z,-0.70
2018-12-02T07:20:28.705Z,-0.80
2018-12-02T07:23:00.626Z,-0.80
2018-12-02T07:25:35.290Z,-0.80
2018-12-02T07:28:06.915Z,-0.80
2018-12-02T07:30:38.429Z,-0.80
2018-12-02T07:33:10.011Z,-0.80
2018-12-02T07:35:41.423Z,-0.70
2018-12-02T07:38:26.466Z,-0.70
2018-12-02T07:40:59.067Z,-0.70
2018-12-02T07:43:30.553Z,-0.60
2018-12-02T07:46:01.539Z,-0.70
2018-12-02T07:48:33.063Z,-0.70
2018-12-02T07:51:04.538Z,-0.70
2018-12-02T07:53:35.885Z,-0.70
2018-12-02T07:56:07.071Z,-0.60
2018-12-02T07:58:38.527Z,-0.60
2018-12-02T08:01:09.866Z,-0.60
2018-12-02T08:03:41.558Z,-0.60
2018-12-02T08:06:12.954Z,-0.60
2018-12-02T08:08:44.203Z,-0.60
2018-12-02T08:11:15.683Z,-0.50
2018-12-02T08:13:47.089Z,-0.50
2018-12-02T08:16:18.369Z,-0.50
2018-12-02T08:18:49.736Z,-0.50
2018-12-02T08:21:21.328Z,-0.60
2018-12-02T08:23:52.834Z,-0.50
2018-12-02T08:26:24.103Z,-0.50
2018-12-02T08:28:55.285Z,-0.40
2018-12-02T08:31:26.727Z,-0.50
2018-12-02T08:33:58.589Z,-0.40
2018-12-02T08:36:30.134Z,-0.40
2018-12-02T08:39:02.174Z,-0.30
2018-12-02T08:41:33.594Z,-0.40
2018-12-02T08:44:05.057Z,-0.40
2018-12-02T08:46:36.616Z,-0.40
2018-12-02T08:49:08.107Z,-0.50
2018-12-02T08:51:39.527Z,-0.50
2018-12-02T08:54:11.018Z,-0.50
2018-12-02T08:56:42.471Z,-0.50
2018-12-02T08:59:14.387Z,-0.50
2018-12-02T09:01:45.896Z,-0.40
2018-12-02T09:04:17.262Z,-0.40
2018-12-02T09:06:48.889Z,-0.40
2018-12-02T09:09:20.579Z,-0.40
2018-12-02T09:11:52.010Z,-0.40
2018-12-02T09:14:23.760Z,-0.50
2018-12-02T09:16:55.254Z,-0.50
2018-12-02T09:19:26.791Z,-0.50
2018-12-02T09:21:58.204Z,-0.50
2018-12-02T09:24:29.716Z,-0.50
2018-12-02T09:27:01.280Z,-0.50
2018-12-02T09:29:32.673Z,-0.50
2018-12-02T09:32:05.144Z,-0.50
2018-12-02T09:34:35.676Z,-0.50
2018-12-02T09:37:07.001Z,-0.50
2018-12-02T09:39:38.468Z,-0.60
2018-12-02T09:42:10.069Z,-0.50
2018-12-02T09:44:41.601Z,-0.50
2018-12-02T09:47:12.908Z,-0.50
2018-12-02T09:49:44.641Z,-0.50
2018-12-02T09:52:16.644Z,-0.50
2018-12-02T09:54:48.225Z,-0.50
2018-12-02T09:57:19.770Z,-0.50
2018-12-02T09:59:51.021Z,-0.10
2018-12-02T10:02:22.523Z,-0.10
2018-12-02T10:04:53.966Z,-0.20
2018-12-02T10:07:25.535Z,-0.30
2018-12-02T10:09:56.900Z,-0.30
2018-12-02T10:12:28.315Z,-0.40
2018-12-02T10:15:00.021Z,-0.30
2018-12-02T10:17:31.679Z,-0.30
2018-12-02T10:20:03.174Z,-0.30
2018-12-02T10:22:34.621Z,-0.30
2018-12-02T10:25:07.828Z,-0.30
2018-12-02T10:27:39.382Z,-0.20
2018-12-02T10:30:17.979Z,-0.30
2018-12-02T10:32:49.712Z,-0.40
2018-12-02T10:35:21.585Z,-0.40
2018-12-02T10:37:53.645Z,-0.40
2018-12-02T10:40:29.439Z,-0.40
2018-12-02T10:43:00.988Z,-0.40
2018-12-02T10:45:32.449Z,-0.40
2018-12-02T10:48:04.879Z,-0.40
2018-12-02T10:50:37.466Z,-0.40
2018-12-02T10:53:13.801Z,-0.40
2018-12-02T10:55:49.508Z,-0.30
2018-12-02T10:58:24.397Z,-0.30
2018-12-02T11:01:04.670Z,-0.30
2018-12-02T11:03:36.146Z,-0.30
2018-12-02T11:06:07.573Z,-0.30
2018-12-02T11:08:39.019Z,-0.30
2018-12-02T11:11:10.465Z,-0.30
2018-12-02T11:13:41.947Z,-0.30
2018-12-02T11:16:13.417Z,-0.30
2018-12-02T11:18:44.825Z,-0.20
2018-12-02T11:21:16.635Z,-0.10
2018-12-02T11:23:48.277Z,-0.10
2018-12-02T11:26:19.643Z,-0.10
2018-12-02T11:28:51.134Z,-0.10
2018-12-02T11:31:22.982Z,0.00
2018-12-02T11:33:55.155Z,-0.10
2018-12-02T11:36:27.038Z,-0.10
2018-12-02T11:38:57.978Z,-0.10
2018-12-02T11:41:29.917Z,0.00
2018-12-02T11:44:01.568Z,0.00
2018-12-02T11:46:33.158Z,0.00
2018-12-02T11:49:05.096Z,0.00
2018-12-02T11:51:37.107Z,0.00
2018-12-02T11:54:08.710Z,0.00
2018-12-02T11:56:40.261Z,0.00
2018-12-02T11:59:12.207Z,0.00
2018-12-02T12:01:43.790Z,0.00
2018-12-02T12:04:16.256Z,0.00
2018-12-02T12:06:47.263Z,0.10
2018-12-02T12:09:18.478Z,0.00
2018-12-02T12:11:49.361Z,0.00
2018-12-02T12:14:20.509Z,0.00
2018-12-02T12:16:51.507Z,0.00
2018-12-02T12:19:23.027Z,0.00
2018-12-02T12:21:54.692Z,0.00
2018-12-02T12:24:26.244Z,0.00
2018-12-02T12:26:57.877Z,0.10
2018-12-02T12:29:30.493Z,0.10
2018-12-02T12:32:01.748Z,0.10
2018-12-02T12:34:33.401Z,0.10
2018-12-02T12:37:04.858Z,0.10
2018-12-02T12:39:36.584Z,0.10
2018-12-02T12:42:09.267Z,0.10
2018-12-02T12:44:41.035Z,0.10
2018-12-02T12:47:12.885Z,0.10
2018-12-02T12:49:44.900Z,0.20
2018-12-02T12:52:16.636Z,0.10
2018-12-02T12:54:48.972Z,0.10
2018-12-02T12:57:20.945Z,0.10
2018-12-02T12:59:52.605Z,0.10
2018-12-02T13:02:24.591Z,0.10
2018-12-02T13:04:56.606Z,0.10
2018-12-02T13:07:28.286Z,0.10
2018-12-02T13:09:59.804Z,0.10
2018-12-02T13:12:30.977Z,0.10
2018-12-02T13:15:02.505Z,0.20
2018-12-02T13:17:34.402Z,0.20
2018-12-02T13:20:08.607Z,0.20
2018-12-02T13:22:40.294Z,0.10
2018-12-02T13:25:13.150Z,0.20
2018-12-02T13:27:45.968Z,0.10
2018-12-02T13:30:18.657Z,0.10
2018-12-02T13:32:51.562Z,0.10
2018-12-02T13:35:23.525Z,0.10
2018-12-02T13:37:55.014Z,0.10
2018-12-02T13:40:26.751Z,0.10
2018-12-02T13:43:01.762Z,0.10
2018-12-02T13:45:33.755Z,0.10
2018-12-02T13:48:06.127Z,0.10
2018-12-02T13:50:37.560Z,0.10
2018-12-02T13:53:09.052Z,0.10
2018-12-02T13:55:40.812Z,0.10
2018-12-02T13:58:12.434Z,0.20
2018-12-02T14:00:44.578Z,0.10
2018-12-02T14:03:16.629Z,0.20
2018-12-02T14:05:50.788Z,0.20
2018-12-02T14:08:22.273Z,0.20
2018-12-02T14:10:53.552Z,0.20
2018-12-02T14:13:28.079Z,0.20
2018-12-02T14:17:11.643Z,0.20
2018-12-02T14:19:45.412Z,0.20
2018-12-02T14:22:16.904Z,0.20
2018-12-02T14:24:49.113Z,0.20
2018-12-02T14:27:20.394Z,0.30
2018-12-02T14:29:56.875Z,0.30
2018-12-02T14:32:28.363Z,0.20
2018-12-02T14:34:59.908Z,0.20
2018-12-02T14:37:31.609Z,0.20
2018-12-02T14:40:02.895Z,0.20
2018-12-02T14:42:34.258Z,0.20
2018-12-02T14:45:08.250Z,0.20
2018-12-02T14:47:39.855Z,0.20
2018-12-02T14:50:19.206Z,0.20
2018-12-02T14:52:50.907Z,0.20
2018-12-02T14:55:22.253Z,0.20
2018-12-02T14:57:53.531Z,0.20
2018-12-02T15:00:24.856Z,0.30
2018-12-02T15:02:56.329Z,0.20
2018-12-02T15:05:27.653Z,0.20
2018-12-02T15:07:58.923Z,0.30
2018-12-02T15:10:30.793Z,0.30
2018-12-02T15:13:02.644Z,0.30
2018-12-02T15:15:34.142Z,0.30
2018-12-02T15:18:06.093Z,0.30
2018-12-02T15:20:37.624Z,0.30
2018-12-02T15:23:09.101Z,0.30
2018-12-02T15:25:40.753Z,0.30
2018-12-02T15:28:12.212Z,0.30
2018-12-02T15:30:43.647Z,0.40
2018-12-02T15:33:15.010Z,0.30
2018-12-02T15:35:46.506Z,0.40
2018-12-02T15:38:17.962Z,0.40
2018-12-02T15:40:49.443Z,0.40
2018-12-02T15:43:21.008Z,0.40
2018-12-02T15:45:52.232Z,0.40
2018-12-02T15:48:23.654Z,0.40
2018-12-02T15:50:55.388Z,0.50
2018-12-02T15:53:26.696Z,0.40
2018-12-02T15:55:58.185Z,0.40
2018-12-02T15:58:30.317Z,0.40
2018-12-02T16:01:01.629Z,0.30
2018-12-02T16:03:33.230Z,0.30
2018-12-02T16:06:04.615Z,0.30
2018-12-02T16:08:36.170Z,0.30
2018-12-02T16:11:07.766Z,0.30
2018-12-02T16:13:39.357Z,0.20
2018-12-02T16:16:11.387Z,0.20
2018-12-02T16:18:43.331Z,0.20
2018-12-02T16:21:14.857Z,0.20
2018-12-02T16:23:46.200Z,0.20
2018-12-02T16:26:17.743Z,0.20
2018-12-02T16:28:49.028Z,0.20
2018-12-02T16:31:20.723Z,0.20
2018-12-02T16:33:52.582Z,0.10
2018-12-02T16:36:23.964Z,0.10
2018-12-02T16:38:55.745Z,0.10
2018-12-02T16:41:27.604Z,0.00
2018-12-02T16:43:59.610Z,0.00
2018-12-02T16:46:31.205Z,0.00
2018-12-02T16:49:02.647Z,0.00
2018-12-02T16:51:34.239Z,0.00
2018-12-02T16:54:05.776Z,0.00
2018-12-02T16:56:37.896Z,-0.10
2018-12-02T16:59:20.321Z,0.00
2018-12-02T17:01:56.759Z,0.00
2018-12-02T17:04:28.061Z,0.00
2018-12-02T17:06:59.470Z,0.10
2018-12-02T17:09:30.971Z,0.10
2018-12-02T17:12:02.780Z,0.10
2018-12-02T17:14:38.665Z,0.00
2018-12-02T17:17:05.453Z,0.00
2018-12-02T17:19:37.627Z,0.10
2018-12-02T17:22:09.287Z,0.10
2018-12-02T17:24:40.846Z,0.00
2018-12-02T17:27:12.511Z,0.00
2018-12-02T17:29:44.218Z,0.00
2018-12-02T17:32:16.021Z,0.00
2018-12-02T17:34:47.338Z,-0.10
2018-12-02T17:37:19.001Z,0.00
2018-12-02T17:39:54.282Z,0.00
2018-12-02T17:42:26.018Z,-0.10
2018-12-02T17:44:57.710Z,-0.10
2018-12-02T17:47:29.095Z,-0.10
2018-12-02T17:50:01.094Z,0.00
2018-12-02T17:52:33.061Z,0.00
2018-12-02T17:55:04.491Z,0.00
2018-12-02T17:57:36.009Z,0.00
2018-12-02T18:00:15.180Z,0.00
2018-12-02T18:02:46.639Z,0.20
2018-12-02T18:05:21.298Z,0.20
2018-12-02T18:07:53.062Z,0.20
2018-12-02T18:10:24.770Z,0.10
2018-12-02T18:12:56.296Z,0.10
2018-12-02T18:15:27.735Z,0.10
2018-12-02T18:17:59.626Z,0.10
2018-12-02T18:20:31.836Z,0.10
2018-12-02T18:23:09.418Z,0.10
2018-12-02T18:25:41.337Z,0.10
2018-12-02T18:28:12.979Z,0.10
2018-12-02T18:30:44.885Z,0.00
2018-12-02T18:33:17.287Z,0.10
2018-12-02T18:35:55.151Z,0.00
2018-12-02T18:38:27.947Z,0.00
2018-12-02T18:41:11.192Z,0.00
2018-12-02T18:43:42.900Z,0.00
2018-12-02T18:46:15.683Z,0.10
2018-12-02T18:48:47.297Z,0.10
2018-12-02T18:51:18.972Z,0.00
2018-12-02T18:53:50.782Z,0.00
2018-12-02T18:56:22.573Z,0.00
2018-12-02T18:58:54.282Z,0.00
2018-12-02T19:01:25.849Z,0.00
2018-12-02T19:03:57.709Z,0.00
2018-12-02T19:06:29.506Z,0.00
2018-12-02T19:09:01.292Z,0.00
2018-12-02T19:11:33.224Z,-0.10
2018-12-02T19:14:05.007Z,-0.10
2018-12-02T19:16:36.519Z,-0.10
2018-12-02T19:19:08.813Z,0.00
2018-12-02T19:21:40.658Z,0.00
2018-12-02T19:24:12.539Z,0.00
2018-12-02T19:26:44.032Z,-0.10
2018-12-02T19:29:15.575Z,-0.10
2018-12-02T19:31:47.473Z,0.00
2018-12-02T19:34:18.832Z,-0.10
2018-12-02T19:36:58.243Z,-0.10
2018-12-02T19:39:29.757Z,-0.10
2018-12-02T19:42:02.120Z,-0.10
2018-12-02T19:44:33.736Z,-0.10
2018-12-02T19:47:05.504Z,-0.20
2018-12-02T19:49:37.261Z,-0.10
2018-12-02T19:52:09.079Z,-0.10
2018-12-02T19:54:40.576Z,-0.10
2018-12-02T19:57:12.259Z,0.00
2018-12-02T19:59:43.861Z,0.00
2018-12-02T20:02:15.302Z,-0.10
2018-12-02T20:04:46.784Z,-0.10
2018-12-02T20:07:18.334Z,0.00
2018-12-02T20:09:50.129Z,0.00
2018-12-02T20:12:21.667Z,-0.10
2018-12-02T20:14:53.243Z,-0.10
2018-12-02T20:17:25.285Z,-0.10
2018-12-02T20:20:01.766Z,-0.10
2018-12-02T20:22:33.652Z,-0.20
2018-12-02T20:25:06.045Z,-0.20
2018-12-02T20:27:38.476Z,-0.20
2018-12-02T20:30:15.140Z,-0.20
2018-12-02T20:32:46.784Z,-0.20
2018-12-02T20:35:18.299Z,-0.20
2018-12-02T20:37:49.598Z,-0.20
2018-12-02T20:40:24.500Z,-0.10
2018-12-02T20:42:55.902Z,-0.10
2018-12-02T20:45:27.546Z,-0.20
2018-12-02T20:47:58.986Z,-0.10
2018-12-02T20:50:30.586Z,-0.10
2018-12-02T20:53:05.432Z,-0.10
2018-12-02T20:55:36.957Z,-0.20
2018-12-02T20:58:08.551Z,-0.10
2018-12-02T21:00:41.698Z,-0.10
2018-12-02T21:03:24.626Z,-0.10
2018-12-02T21:06:03.232Z,0.00
2018-12-02T21:08:35.159Z,0.00
2018-12-02T21:11:06.618Z,0.00
2018-12-02T21:13:37.943Z,0.00
2018-12-02T21:16:10.762Z,0.00
2018-12-02T21:18:42.172Z,0.00
2018-12-02T21:21:13.799Z,0.00
2018-12-02T21:23:45.790Z,0.00
2018-12-02T21:26:17.442Z,-0.10
2018-12-02T21:28:49.018Z,-0.10
2018-12-02T21:31:21.045Z,-0.10
2018-12-02T21:33:52.403Z,-0.10
2018-12-02T21:36:23.856Z,0.00
2018-12-02T21:38:55.653Z,-0.10
2018-12-02T21:41:27.302Z,-0.10
2018-12-02T21:43:59.041Z,-0.10
2018-12-02T21:46:30.858Z,-0.10
2018-12-02T21:49:02.418Z,-0.10
2018-12-02T21:51:34.029Z,0.00
2018-12-02T21:54:06.396Z,0.00
2018-12-02T21:56:38.255Z,0.00
2018-12-02T21:59:09.854Z,0.00
2018-12-02T22:01:41.778Z,0.00
2018-12-02T22:04:13.442Z,0.10
2018-12-02T22:06:45.298Z,0.10
2018-12-02T22:09:17.159Z,0.20
2018-12-02T22:11:48.590Z,0.20
2018-12-02T22:14:20.095Z,0.20
2018-12-02T22:16:51.790Z,0.20
2018-12-02T22:19:23.431Z,0.20
2018-12-02T22:21:55.316Z,0.20
2018-12-02T22:24:27.275Z,0.20
2018-12-02T22:26:58.772Z,0.20
2018-12-02T22:29:30.357Z,0.20
2018-12-02T22:32:01.960Z,0.20
2018-12-02T22:34:33.693Z,0.20
2018-12-02T22:37:05.432Z,0.30
2018-12-02T22:39:37.012Z,0.20
2018-12-02T22:42:08.513Z,0.20
2018-12-02T22:44:40.567Z,0.20
2018-12-02T22:47:12.043Z,0.20
2018-12-02T22:49:43.537Z,0.20
2018-12-02T22:52:14.879Z,0.10
2018-12-02T22:54:46.568Z,0.10
2018-12-02T22:57:18.249Z,0.10
2018-12-02T22:59:49.617Z,0.20
2018-12-02T23:02:26.043Z,0.20
2018-12-02T23:04:57.735Z,0.20
2018-12-02T23:07:29.138Z,0.20
2018-12-02T23:10:00.680Z,0.20
2018-12-02T23:12:32.148Z,0.20
2018-12-02T23:15:03.903Z,0.20
2018-12-02T23:17:35.524Z,0.20
2018-12-02T23:20:09.334Z,0.20
2018-12-02T23:22:40.796Z,0.20
2018-12-02T23:25:14.633Z,0.20
2018-12-02T23:27:46.634Z,0.30
2018-12-02T23:30:22.938Z,0.30
2018-12-02T23:32:54.700Z,0.30
2018-12-02T23:35:26.600Z,0.30
2018-12-02T23:37:58.119Z,0.40
2018-12-02T23:40:29.910Z,0.30
2018-12-02T23:43:01.024Z,0.30
2018-12-02T23:45:32.675Z,0.30
2018-12-02T23:48:04.355Z,0.30
2018-12-02T23:50:35.987Z,0.30
2018-12-02T23:53:07.775Z,0.30
2018-12-02T23:55:38.938Z,0.30
2018-12-02T23:58:10.294Z,0.30
